createdAt,value
2018-11-28T00:01:58.262Z,101310.16
2018-11-28T00:04:29.628Z,101306.12
2018-11-28T00:06:59.890Z,101307.92
2018-11-28T00:09:29.869Z,101302.48
2018-11-28T00:11:59.872Z,101299.12
2018-11-28T00:14:29.838Z,101293.13
2018-11-28T00:16:59.950Z,101301.63
2018-11-28T00:19:30.463Z,101296.41
2018-11-28T00:22:00.506Z,101300.36
2018-11-28T00:24:30.530Z,101291.39
2018-11-28T00:27:00.571Z,101295.23
2018-11-28T00:29:30.579Z,101290.59
2018-11-28T00:32:01.804Z,101301.31
2018-11-28T00:34:31.867Z,101303.02
2018-11-28T00:37:02.109Z,101307.70
2018-11-28T00:39:32.101Z,101303.53
2018-11-28T00:42:02.655Z,101305.58
2018-11-28T00:44:33.036Z,101301.36
2018-11-28T00:47:03.051Z,101291.58
2018-11-28T00:49:33.062Z,101285.27
2018-11-28T00:52:03.588Z,101287.83
2018-11-28T00:54:33.683Z,101277.63
2018-11-28T00:57:03.798Z,101275.06
2018-11-28T00:59:34.216Z,101272.11
2018-11-28T01:02:04.206Z,101270.86
2018-11-28T01:04:34.444Z,101273.43
2018-11-28T01:07:04.461Z,101277.73
2018-11-28T01:09:34.500Z,101276.03
2018-11-28T01:12:04.523Z,101279.45
2018-11-28T01:14:34.521Z,101284.19
2018-11-28T01:17:05.826Z,101282.91
2018-11-28T01:19:36.067Z,101285.04
2018-11-28T01:22:06.556Z,101273.50
2018-11-28T01:24:37.015Z,101281.63
2018-11-28T01:27:07.384Z,101268.77
2018-11-28T01:29:37.394Z,101267.53
2018-11-28T01:32:07.745Z,101269.27
2018-11-28T01:34:37.865Z,101265.81
2018-11-28T01:37:08.107Z,101272.23
2018-11-28T01:39:38.388Z,101274.83
2018-11-28T01:42:08.819Z,101276.57
2018-11-28T01:44:38.937Z,101275.64
2018-11-28T01:47:09.511Z,101267.09
2018-11-28T01:49:39.687Z,101272.61
2018-11-28T01:52:09.693Z,101269.20
2018-11-28T01:54:39.674Z,101264.50
2018-11-28T01:57:10.223Z,101266.24
2018-11-28T01:59:40.312Z,101271.37
2018-11-28T02:02:11.237Z,101267.95
2018-11-28T02:04:41.375Z,101266.24
2018-11-28T02:07:11.925Z,101267.09
2018-11-28T02:09:41.995Z,101278.67
2018-11-28T02:12:11.969Z,101275.64
2018-11-28T02:14:41.988Z,101270.16
2018-11-28T02:17:12.103Z,101270.16
2018-11-28T02:19:42.112Z,101270.55
2018-11-28T02:22:12.163Z,101274.83
2018-11-28T02:24:42.222Z,101273.58
2018-11-28T02:27:12.209Z,101272.27
2018-11-28T02:29:42.302Z,101273.08
2018-11-28T02:32:12.367Z,101271.33
2018-11-28T02:34:42.597Z,101270.91
2018-11-28T02:37:12.649Z,101269.20
2018-11-28T02:39:42.648Z,101273.90
2018-11-28T02:42:12.798Z,101269.62
2018-11-28T02:44:42.859Z,101267.06
2018-11-28T02:47:12.938Z,101270.09
2018-11-28T02:49:42.973Z,101273.90
2018-11-28T02:52:13.098Z,101273.90
2018-11-28T02:54:43.303Z,101264.95
2018-11-28T02:57:13.424Z,101258.98
2018-11-28T02:59:43.539Z,101254.70
2018-11-28T03:02:13.647Z,101243.63
2018-11-28T03:04:43.755Z,101244.55
2018-11-28T03:07:13.910Z,101244.09
2018-11-28T03:09:44.070Z,101238.97
2018-11-28T03:12:14.307Z,101239.42
2018-11-28T03:14:44.306Z,101239.82
2018-11-28T03:17:28.422Z,101239.82
2018-11-28T03:19:58.473Z,101241.53
2018-11-28T03:22:28.538Z,101238.89
2018-11-28T03:24:58.702Z,101241.46
2018-11-28T03:27:28.675Z,101233.31
2018-11-28T03:29:58.924Z,101238.44
2018-11-28T03:32:28.997Z,101248.27
2018-11-28T03:34:59.038Z,101245.30
2018-11-28T03:37:29.083Z,101238.89
2018-11-28T03:39:59.135Z,101231.17
2018-11-28T03:42:29.131Z,101228.18
2018-11-28T03:44:59.361Z,101229.07
2018-11-28T03:47:29.471Z,101225.29
2018-11-28T03:49:59.535Z,101229.95
2018-11-28T03:52:29.551Z,101233.02
2018-11-28T03:54:59.693Z,101226.60
2018-11-28T03:57:29.804Z,101224.03
2018-11-28T03:59:59.845Z,101215.52
2018-11-28T04:02:30.055Z,101210.84
2018-11-28T04:05:00.175Z,101211.70
2018-11-28T04:07:30.167Z,101208.30
2018-11-28T04:10:00.232Z,101210.02
2018-11-28T04:12:30.258Z,101206.16
2018-11-28T04:15:00.413Z,101213.41
2018-11-28T04:17:30.574Z,101203.60
2018-11-28T04:20:00.722Z,101206.59
2018-11-28T04:22:30.778Z,101212.55
2018-11-28T04:25:00.869Z,101216.43
2018-11-28T04:27:30.855Z,101221.56
2018-11-28T04:30:01.103Z,101227.55
2018-11-28T04:32:31.213Z,101228.03
2018-11-28T04:35:01.275Z,101232.27
2018-11-28T04:37:31.450Z,101224.55
2018-11-28T04:40:01.597Z,101226.26
2018-11-28T04:42:31.719Z,101226.69
2018-11-28T04:45:01.848Z,101216.86
2018-11-28T04:47:31.848Z,101215.59
2018-11-28T04:50:01.917Z,101220.33
2018-11-28T04:52:32.069Z,101213.86
2018-11-28T04:55:02.147Z,101212.63
2018-11-28T04:57:32.261Z,101219.05
2018-11-28T05:00:02.323Z,101212.61
2018-11-28T05:02:32.358Z,101210.92
2018-11-28T05:05:02.567Z,101207.98
2018-11-28T05:07:32.611Z,101218.69
2018-11-28T05:10:03.426Z,101213.55
2018-11-28T05:12:33.660Z,101203.27
2018-11-28T05:15:03.962Z,101201.13
2018-11-28T05:17:34.230Z,101193.02
2018-11-28T05:20:04.521Z,101208.84
2018-11-28T05:22:34.757Z,101207.59
2018-11-28T05:25:05.409Z,101210.14
2018-11-28T05:27:35.604Z,101203.73
2018-11-28T05:30:09.246Z,101204.61
2018-11-28T05:32:39.737Z,101199.48
2018-11-28T05:35:11.935Z,101205.08
2018-11-28T05:37:42.568Z,101208.05
2018-11-28T05:40:20.011Z,101194.80
2018-11-28T05:42:50.269Z,101193.13
2018-11-28T05:45:21.414Z,101194.38
2018-11-28T05:47:51.968Z,101193.13
2018-11-28T05:50:23.318Z,101190.13
2018-11-28T05:52:53.406Z,101194.84
2018-11-28T05:55:24.217Z,101188.41
2018-11-28T05:57:54.251Z,101190.13
2018-11-28T06:00:33.740Z,101192.25
2018-11-28T06:03:05.686Z,101189.70
2018-11-28T06:05:36.171Z,101199.10
2018-11-28T06:08:06.922Z,101192.69
2018-11-28T06:10:36.909Z,101193.98
2018-11-28T06:16:08.674Z,101193.97
2018-11-28T06:18:38.936Z,101179.87
2018-11-28T06:21:09.214Z,101196.14
2018-11-28T06:23:39.408Z,101187.16
2018-11-28T06:26:11.060Z,101190.60
2018-11-28T06:28:42.648Z,101192.72
2018-11-28T06:31:12.835Z,101192.28
2018-11-28T06:33:43.094Z,101192.31
2018-11-28T06:36:13.769Z,101187.17
2018-11-28T06:38:43.887Z,101188.88
2018-11-28T06:41:14.145Z,101180.33
2018-11-28T06:43:44.223Z,101187.18
2018-11-28T06:46:14.424Z,101187.18
2018-11-28T06:48:44.656Z,101191.45
2018-11-28T06:51:14.977Z,101203.01
2018-11-28T06:53:45.159Z,101206.02
2018-11-28T06:56:15.432Z,101204.72
2018-11-28T06:58:45.602Z,101213.73
2018-11-28T07:01:23.452Z,101216.30
2018-11-28T07:03:53.706Z,101221.44
2018-11-28T07:06:23.789Z,101217.56
2018-11-28T07:08:53.995Z,101238.98
2018-11-28T07:11:24.138Z,101231.27
2018-11-28T07:13:54.326Z,101233.84
2018-11-28T07:16:24.797Z,101235.14
2018-11-28T07:19:16.278Z,101242.86
2018-11-28T07:21:46.478Z,101244.16
2018-11-28T07:24:16.624Z,101241.98
2018-11-28T07:26:48.843Z,101247.15
2018-11-28T07:29:18.919Z,101250.55
2018-11-28T07:31:49.153Z,101247.58
2018-11-28T07:34:19.338Z,101251.42
2018-11-28T07:36:49.560Z,101252.70
2018-11-28T07:39:19.824Z,101252.29
2018-11-28T07:41:50.133Z,101250.56
2018-11-28T07:44:20.412Z,101251.84
2018-11-28T07:46:50.554Z,101248.87
2018-11-28T07:49:20.705Z,101256.15
2018-11-28T07:51:51.305Z,101250.58
2018-11-28T07:54:21.538Z,101257.44
2018-11-28T07:56:51.721Z,101255.29
2018-11-28T07:59:22.051Z,101248.88
2018-11-28T08:01:52.536Z,101245.43
2018-11-28T08:04:22.826Z,101250.58
2018-11-28T08:06:52.908Z,101244.14
2018-11-28T08:09:23.058Z,101250.58
2018-11-28T08:11:53.304Z,101254.02
2018-11-28T08:14:23.440Z,101245.44
2018-11-28T08:16:53.602Z,101255.30
2018-11-28T08:19:24.131Z,101245.84
2018-11-28T08:21:54.284Z,101247.14
2018-11-28T08:24:24.538Z,101248.45
2018-11-28T08:26:54.719Z,101247.14
2018-11-28T08:29:25.490Z,101242.45
2018-11-28T08:31:55.612Z,101244.59
2018-11-28T08:34:25.869Z,101243.72
2018-11-28T08:36:55.978Z,101242.02
2018-11-28T08:39:26.107Z,101242.84
2018-11-28T08:41:56.505Z,101243.27
2018-11-28T08:44:26.594Z,101241.14
2018-11-28T08:46:56.822Z,101251.00
2018-11-28T08:49:27.088Z,101249.71
2018-11-28T08:51:57.428Z,101252.27
2018-11-28T08:54:27.723Z,101253.97
2018-11-28T08:56:57.965Z,101260.39
2018-11-28T08:59:28.131Z,101262.55
2018-11-28T09:01:58.365Z,101255.69
2018-11-28T09:04:28.615Z,101265.53
2018-11-28T09:06:58.831Z,101263.41
2018-11-28T09:09:29.093Z,101252.23
2018-11-28T09:11:59.245Z,101253.94
2018-11-28T09:14:29.396Z,101249.22
2018-11-28T09:16:59.563Z,101248.38
2018-11-28T09:19:29.673Z,101244.92
2018-11-28T09:21:59.997Z,101248.77
2018-11-28T09:24:30.079Z,101247.50
2018-11-28T09:27:00.276Z,101250.45
2018-11-28T09:29:30.525Z,101246.61
2018-11-28T09:32:00.783Z,101245.30
2018-11-28T09:34:31.063Z,101247.80
2018-11-28T09:37:01.247Z,101242.28
2018-11-28T09:39:31.389Z,101237.51
2018-11-28T09:42:01.565Z,101235.30
2018-11-28T09:44:31.664Z,101236.23
2018-11-28T09:47:01.827Z,101235.79
2018-11-28T09:49:32.087Z,101234.91
2018-11-28T09:52:02.271Z,101238.77
2018-11-28T09:54:32.425Z,101231.81
2018-11-28T09:57:02.674Z,101227.11
2018-11-28T09:59:33.044Z,101242.61
2018-11-28T10:02:03.349Z,101236.98
2018-11-28T10:04:33.534Z,101234.87
2018-11-28T10:07:03.730Z,101238.66
2018-11-28T10:09:33.746Z,101243.88
2018-11-28T10:12:04.156Z,101242.99
2018-11-28T10:14:34.591Z,101236.04
2018-11-28T10:17:04.638Z,101227.02
2018-11-28T10:19:34.972Z,101227.40
2018-11-28T10:22:05.067Z,101221.86
2018-11-28T10:24:35.176Z,101213.60
2018-11-28T10:27:05.484Z,101209.82
2018-11-28T10:29:35.719Z,101205.02
2018-11-28T10:32:05.899Z,101193.33
2018-11-28T10:34:36.224Z,101201.05
2018-11-28T10:37:06.366Z,101193.80
2018-11-28T10:39:36.486Z,101184.82
2018-11-28T10:42:07.003Z,101186.88
2018-11-28T10:44:37.445Z,101171.81
2018-11-28T10:47:07.590Z,101179.61
2018-11-28T10:49:37.726Z,101181.25
2018-11-28T10:52:08.426Z,101172.23
2018-11-28T10:54:38.495Z,101173.12
2018-11-28T10:57:09.191Z,101177.79
2018-11-28T10:59:39.313Z,101179.42
2018-11-28T11:04:16.371Z,101169.92
2018-11-28T11:06:51.584Z,101176.64
2018-11-28T11:09:26.589Z,101171.44
2018-11-28T11:12:01.705Z,101171.88
2018-11-28T11:14:51.887Z,101164.95
2018-11-28T11:17:21.996Z,101161.98
2018-11-28T11:19:52.094Z,101163.57
2018-11-28T11:22:22.197Z,101162.70
2018-11-28T11:24:52.412Z,101170.95
2018-11-28T11:27:22.475Z,101165.63
2018-11-28T11:29:52.539Z,101169.83
2018-11-28T11:32:22.625Z,101172.91
2018-11-28T11:34:52.605Z,101177.19
2018-11-28T11:37:23.347Z,101172.73
2018-11-28T11:39:53.524Z,101179.33
2018-11-28T11:42:23.619Z,101171.83
2018-11-28T11:44:53.954Z,101167.69
2018-11-28T11:47:23.942Z,101165.04
2018-11-28T11:49:53.989Z,101161.48
2018-11-28T11:52:24.592Z,101158.59
2018-11-28T11:54:54.704Z,101143.53
2018-11-28T11:57:37.852Z,101153.89
2018-11-28T12:00:19.412Z,101151.00
2018-11-28T12:03:03.201Z,101155.52
2018-11-28T12:05:33.263Z,101151.00
2018-11-28T12:08:05.238Z,101153.77
2018-11-28T12:10:35.767Z,101157.17
2018-11-28T12:13:06.465Z,101154.17
2018-11-28T12:15:38.391Z,101145.50
2018-11-28T12:18:08.596Z,101139.09
2018-11-28T12:20:46.339Z,101130.75
2018-11-28T12:23:16.566Z,101135.59
2018-11-28T12:25:46.786Z,101135.94
2018-11-28T12:28:17.083Z,101133.33
2018-11-28T12:30:47.208Z,101128.55
2018-11-28T12:33:27.166Z,101126.35
2018-11-28T12:35:58.989Z,101117.75
2018-11-28T12:38:30.578Z,101118.16
2018-11-28T12:41:04.371Z,101114.64
2018-11-28T12:43:34.580Z,101107.59
2018-11-28T12:46:04.873Z,101118.95
2018-11-28T12:48:35.200Z,101128.00
2018-11-28T12:53:53.590Z,101121.42
2018-11-28T12:56:30.321Z,101118.58
2018-11-28T12:59:00.659Z,101115.37
2018-11-28T13:01:30.957Z,101112.64
2018-11-28T13:04:01.165Z,101111.34
2018-11-28T13:06:31.711Z,101119.88
2018-11-28T13:09:01.958Z,101126.64
2018-11-28T13:11:32.067Z,101119.59
2018-11-28T13:14:02.166Z,101127.31
2018-11-28T13:16:33.214Z,101126.34
2018-11-28T13:21:51.508Z,101109.86
2018-11-28T13:27:15.361Z,101108.13
2018-11-28T13:29:45.543Z,101097.85
2018-11-28T13:32:17.561Z,101098.27
2018-11-28T13:35:15.794Z,101088.44
2018-11-28T13:37:50.165Z,101085.00
2018-11-28T13:46:07.288Z,101083.13
2018-11-28T13:51:21.457Z,101071.23
2018-11-28T13:53:51.658Z,101062.70
2018-11-28T13:59:59.999Z,101055.94
2018-11-28T14:02:30.068Z,101055.59
2018-11-28T14:05:27.299Z,101048.32
2018-11-28T14:10:46.477Z,101036.89
2018-11-28T14:13:23.237Z,101038.39
2018-11-28T14:15:53.427Z,101044.99
2018-11-28T14:21:57.354Z,101046.45
2018-11-28T14:27:29.579Z,101049.14
2018-11-28T14:29:59.790Z,101037.98
2018-11-28T14:32:31.795Z,101038.36
2018-11-28T14:35:07.565Z,101040.87
2018-11-28T14:37:38.076Z,101039.95
2018-11-28T14:40:16.108Z,101031.42
2018-11-28T14:42:47.859Z,101040.98
2018-11-28T14:45:19.002Z,101046.00
2018-11-28T14:47:50.198Z,101049.10
2018-11-28T14:50:28.115Z,101052.12
2018-11-28T14:57:02.664Z,101049.10
2018-11-28T14:59:32.862Z,101038.33
2018-11-28T15:04:55.901Z,101042.98
2018-11-28T15:07:26.725Z,101038.29
2018-11-28T15:10:04.351Z,101034.95
2018-11-28T15:12:35.886Z,101028.69
2018-11-28T15:15:08.108Z,101031.94
2018-11-28T15:17:38.294Z,101019.80
2018-11-28T15:20:09.916Z,101019.83
2018-11-28T15:22:41.326Z,101019.83
2018-11-28T15:25:11.949Z,101019.39
2018-11-28T15:27:42.337Z,101024.59
2018-11-28T15:30:12.782Z,101006.91
2018-11-28T15:32:43.288Z,101003.92
2018-11-28T15:35:14.782Z,101021.45
2018-11-28T15:37:45.101Z,101019.05
2018-11-28T15:40:18.243Z,101015.11
2018-11-28T15:42:48.962Z,101012.86
2018-11-28T15:45:19.099Z,101006.09
2018-11-28T15:47:49.206Z,101013.41
2018-11-28T15:50:19.383Z,101007.80
2018-11-28T15:52:49.954Z,101004.21
2018-11-28T15:55:20.027Z,101003.81
2018-11-28T15:57:50.081Z,101005.50
2018-11-28T16:00:24.900Z,101005.61
2018-11-28T16:02:55.703Z,101011.16
2018-11-28T16:05:29.812Z,100996.13
2018-11-28T16:08:07.814Z,101005.17
2018-11-28T16:10:41.164Z,100998.34
2018-11-28T16:13:18.732Z,101005.09
2018-11-28T16:15:54.920Z,101012.48
2018-11-28T16:18:31.413Z,101011.63
2018-11-28T16:21:09.181Z,101001.34
2018-11-28T16:23:49.000Z,101006.91
2018-11-28T16:26:19.565Z,101005.51
2018-11-28T16:28:50.005Z,101016.36
2018-11-28T16:31:20.158Z,101028.44
2018-11-28T16:34:03.421Z,101016.32
2018-11-28T16:36:34.227Z,101026.29
2018-11-28T16:39:05.471Z,101021.16
2018-11-28T16:41:36.313Z,101016.47
2018-11-28T16:44:16.796Z,101024.73
2018-11-28T16:49:49.792Z,101025.66
2018-11-28T16:52:20.999Z,101030.82
2018-11-28T16:55:19.157Z,101026.94
2018-11-28T16:57:55.057Z,101041.66
2018-11-28T17:00:28.294Z,101049.89
2018-11-28T17:09:31.180Z,101044.34
2018-11-28T17:12:01.233Z,101052.98
2018-11-28T17:14:32.052Z,101044.34
2018-11-28T17:17:03.677Z,101046.99
2018-11-28T17:19:34.230Z,101047.44
2018-11-28T17:22:05.776Z,101049.16
2018-11-28T17:24:36.456Z,101048.73
2018-11-28T17:27:07.097Z,101047.88
2018-11-28T17:29:39.836Z,101048.73
2018-11-28T17:34:59.520Z,101043.16
2018-11-28T17:37:30.530Z,101048.38
2018-11-28T17:40:25.490Z,101040.64
2018-11-28T17:42:59.355Z,101037.17
2018-11-28T17:54:43.634Z,101037.27
2018-11-28T17:57:13.754Z,101041.52
2018-11-28T17:59:52.105Z,101041.08
2018-11-28T18:05:22.204Z,101046.69
2018-11-28T18:07:55.887Z,101043.25
2018-11-28T18:10:42.431Z,101038.49
2018-11-28T18:13:19.946Z,101025.58
2018-11-28T18:16:15.108Z,101016.61
2018-11-28T18:18:59.733Z,101004.92
2018-11-28T18:21:33.422Z,101005.80
2018-11-28T18:24:03.533Z,101004.52
2018-11-28T18:26:39.418Z,101013.11
2018-11-28T18:29:09.494Z,101019.13
2018-11-28T18:31:39.650Z,101013.96
2018-11-28T18:34:09.726Z,101023.03
2018-11-28T18:36:41.725Z,101024.32
2018-11-28T18:39:14.093Z,101029.86
2018-11-28T18:41:44.109Z,101031.19
2018-11-28T18:44:14.162Z,101022.52
2018-11-28T18:46:44.253Z,101038.91
2018-11-28T18:49:38.977Z,101026.87
2018-11-28T18:52:09.557Z,101020.83
2018-11-28T18:54:39.655Z,101016.51
2018-11-28T18:57:33.812Z,101025.14
2018-11-28T19:03:12.106Z,101019.09
2018-11-28T19:05:44.984Z,101019.91
2018-11-28T19:08:15.111Z,101033.16
2018-11-28T19:10:45.180Z,101040.06
2018-11-28T19:13:15.266Z,101042.20
2018-11-28T19:15:45.390Z,101037.45
2018-11-28T19:18:15.404Z,101027.22
2018-11-28T19:20:45.521Z,101029.36
2018-11-28T19:23:15.291Z,101021.98
2018-11-28T19:28:54.708Z,101026.23
2018-11-28T19:31:25.269Z,101021.95
2018-11-28T19:33:56.816Z,101013.76
2018-11-28T19:36:26.972Z,101009.03
2018-11-28T19:38:57.281Z,101004.31
2018-11-28T19:41:55.670Z,101007.23
2018-11-28T19:44:28.687Z,101000.33
2018-11-28T19:47:08.304Z,100980.95
2018-11-28T19:49:40.995Z,100978.34
2018-11-28T19:52:12.361Z,100971.52
2018-11-28T19:54:42.447Z,100978.86
2018-11-28T20:00:22.369Z,100964.54
2018-11-28T20:06:05.386Z,100961.99
2018-11-28T20:08:35.298Z,100958.12
2018-11-28T20:11:10.958Z,100962.03
2018-11-28T20:13:41.217Z,100967.12
2018-11-28T20:16:11.222Z,100976.61
2018-11-28T20:18:57.098Z,100989.82
2018-11-28T20:21:27.543Z,100997.67
2018-11-28T20:24:09.385Z,100999.70
2018-11-28T20:26:55.723Z,101000.05
2018-11-28T20:29:26.322Z,101002.33
2018-11-28T20:35:37.068Z,101005.32
2018-11-28T20:38:22.510Z,100997.61
2018-11-28T20:41:16.931Z,100992.48
2018-11-28T20:46:57.355Z,100981.19
2018-11-28T20:49:27.353Z,100975.20
2018-11-28T20:51:57.428Z,100975.53
2018-11-28T20:54:27.358Z,100975.16
2018-11-28T20:56:57.347Z,100961.73
2018-11-28T20:59:39.504Z,100959.63
2018-11-28T21:02:13.519Z,100951.91
2018-11-28T21:04:43.587Z,100961.77
2018-11-28T21:07:34.669Z,100965.20
2018-11-28T21:10:12.222Z,100971.63
2018-11-28T21:15:58.372Z,100982.77
2018-11-28T21:18:28.441Z,100983.83
2018-11-28T21:20:58.464Z,100988.27
2018-11-28T21:26:33.829Z,100989.48
2018-11-28T21:29:04.306Z,100986.97
2018-11-28T21:31:35.087Z,100980.95
2018-11-28T21:34:25.514Z,100966.34
2018-11-28T21:40:10.257Z,100962.87
2018-11-28T21:45:50.905Z,100953.70
2018-11-28T21:48:20.841Z,100938.07
2018-11-28T21:50:50.992Z,100936.94
2018-11-28T21:53:21.057Z,100933.92
2018-11-28T21:55:51.096Z,100925.75
2018-11-28T21:59:01.684Z,100926.03
2018-11-28T22:01:31.727Z,100929.98
2018-11-28T22:04:01.734Z,100926.52
2018-11-28T22:06:31.718Z,100933.34
2018-11-28T22:09:01.983Z,100934.06
2018-11-28T22:12:00.434Z,100945.17
2018-11-28T22:14:30.433Z,100935.41
2018-11-28T22:17:00.416Z,100938.03
2018-11-28T22:19:30.488Z,100944.48
2018-11-28T22:22:00.637Z,100950.47
2018-11-28T22:24:30.790Z,100953.38
2018-11-28T22:27:00.918Z,100952.41
2018-11-28T22:32:40.723Z,100935.40
2018-11-28T22:38:19.576Z,100941.66
2018-11-28T22:40:49.511Z,100938.09
2018-11-28T22:43:38.373Z,100934.47
2018-11-28T22:49:17.986Z,100927.52
2018-11-28T22:51:48.043Z,100924.48
2018-11-28T22:54:18.152Z,100920.53
2018-11-28T22:59:57.920Z,100913.66
2018-11-28T23:05:29.940Z,100911.08
2018-11-28T23:08:02.294Z,100905.41
2018-11-28T23:10:32.277Z,100908.41
2018-11-28T23:13:02.543Z,100893.69
2018-11-28T23:15:50.398Z,100895.34
2018-11-28T23:18:20.369Z,100874.26
2018-11-28T23:23:58.917Z,100887.23
2018-11-28T23:26:28.911Z,100893.61
2018-11-28T23:28:58.985Z,100896.28
2018-11-28T23:31:52.396Z,100891.55
2018-11-28T23:34:36.802Z,100897.25
2018-11-28T23:37:08.015Z,100907.83
2018-11-28T23:39:39.233Z,100894.05
2018-11-28T23:45:18.394Z,100864.72
2018-11-28T23:47:51.839Z,100857.76
2018-11-28T23:50:24.753Z,100864.27
2018-11-28T23:53:07.135Z,100860.83
2018-11-28T23:55:52.812Z,100863.38
2018-11-28T23:58:22.849Z,100859.98
